createdAt,value
2018-03-15T00:05:03.419Z,23.37
2018-03-15T00:09:04.012Z,22.17
2018-03-15T00:11:04.624Z,16.73
2018-03-15T00:15:05.625Z,15.19
2018-03-15T00:21:06.284Z,10.38
2018-03-15T00:25:06.975Z,9.95
2018-03-15T00:31:07.566Z,7.74
2018-03-15T00:35:08.285Z,8.47
2018-03-15T00:37:08.947Z,7.27
2018-03-15T00:41:09.547Z,10.18
2018-03-15T00:47:10.378Z,8.16
2018-03-15T00:51:10.975Z,8.36
2018-03-15T00:57:11.576Z,5.97
2018-03-15T01:01:12.211Z,6.45
2018-03-15T01:03:12.785Z,7.13
2018-03-15T01:07:13.491Z,7.57
2018-03-15T01:13:14.393Z,7.03
2018-03-15T01:17:15.031Z,7.17
2018-03-15T01:23:15.795Z,7.46
2018-03-15T01:27:16.232Z,6.37
2018-03-15T01:29:16.857Z,6.54
2018-03-15T01:33:17.476Z,7.19
2018-03-15T01:39:18.240Z,5.31
2018-03-15T01:43:18.760Z,6.8
2018-03-15T01:49:19.458Z,5.13
2018-03-15T01:55:20.035Z,6.12
2018-03-15T01:59:20.790Z,7.29
2018-03-15T02:05:21.535Z,5.62
2018-03-15T02:09:22.175Z,7.43
2018-03-15T02:15:23.158Z,5.89
2018-03-15T02:21:23.729Z,5.84
2018-03-15T02:25:24.386Z,6.72
2018-03-15T02:31:25.005Z,6.5
2018-03-15T02:35:25.631Z,8.58
2018-03-15T02:41:26.165Z,8.07
2018-03-15T02:47:26.979Z,7.32
2018-03-15T02:51:27.590Z,8.1
2018-03-15T02:57:28.360Z,5.39
2018-03-15T03:01:28.996Z,7.79
2018-03-15T03:03:29.553Z,6.21
2018-03-15T03:07:30.201Z,8.82
2018-03-15T03:13:30.715Z,6.34
2018-03-15T03:17:31.419Z,8.84
2018-03-15T03:23:32.069Z,5.27
2018-03-15T03:27:32.692Z,6.28
2018-03-15T03:29:33.287Z,5.98
2018-03-15T03:33:33.900Z,7.46
2018-03-15T03:39:34.457Z,5.43
2018-03-15T03:43:35.090Z,6.84
2018-03-15T03:49:35.676Z,5.89
2018-03-15T03:55:36.337Z,5.41
2018-03-15T03:59:37.003Z,5.83
2018-03-15T04:05:37.592Z,4.75
2018-03-15T04:09:38.163Z,7.08
2018-03-15T04:15:38.829Z,4.7
2018-03-15T04:21:39.505Z,5.26
2018-03-15T04:25:40.078Z,6.68
2018-03-15T04:31:40.793Z,6.67
2018-03-15T04:35:41.402Z,6.31
2018-03-15T04:41:41.891Z,7.66
2018-03-15T04:47:42.545Z,6.97
2018-03-15T04:51:43.139Z,6.67
2018-03-15T04:57:43.790Z,5.03
2018-03-15T05:01:44.431Z,4.61
2018-03-15T05:03:44.968Z,4.51
2018-03-15T05:07:45.540Z,6.15
2018-03-15T05:13:46.167Z,4.7
2018-03-15T05:17:46.810Z,5.64
2018-03-15T05:23:47.478Z,6.25
2018-03-15T05:27:48.061Z,7.15
2018-03-15T05:29:48.646Z,5.26
2018-03-15T05:33:49.248Z,6.88
2018-03-15T05:39:49.980Z,6.11
2018-03-15T05:43:50.662Z,7.68
2018-03-15T05:49:51.382Z,6.3
2018-03-15T05:53:51.908Z,6.22
2018-03-15T05:55:52.710Z,5.73
2018-03-15T05:59:53.348Z,6.62
2018-03-15T06:05:53.992Z,5.62
2018-03-15T06:09:54.633Z,7.97
2018-03-15T06:15:55.170Z,7.27
2018-03-15T06:21:55.802Z,6.08
2018-03-15T06:25:56.544Z,8.49
2018-03-15T06:31:57.138Z,6.2
2018-03-15T06:35:57.679Z,6.5
2018-03-15T06:41:58.414Z,7.1
2018-03-15T06:47:59.076Z,8.75
2018-03-15T06:51:59.643Z,8.47
2018-03-15T06:58:00.297Z,8.67
2018-03-15T07:02:00.871Z,8.53
2018-03-15T07:08:01.497Z,9
2018-03-15T07:14:02.139Z,6.94
2018-03-15T07:18:02.632Z,7.8
2018-03-15T07:24:03.306Z,9.26
2018-03-15T07:28:03.910Z,8.08
2018-03-15T07:30:04.668Z,12.68
2018-03-15T07:34:05.321Z,9.32
2018-03-15T07:40:06.009Z,7.55
2018-03-15T07:44:06.540Z,10.02
2018-03-15T07:50:07.221Z,9.57
2018-03-15T07:54:07.872Z,12.7
2018-03-15T07:56:08.524Z,11.68
2018-03-15T08:00:09.311Z,13.66
2018-03-15T08:06:09.783Z,8.91
2018-03-15T08:10:10.426Z,10.61
2018-03-15T08:16:11.128Z,9.16
2018-03-15T08:20:11.870Z,11.63
2018-03-15T08:22:12.456Z,10.23
2018-03-15T08:26:13.077Z,13.07
2018-03-15T08:32:13.770Z,12.84
2018-03-15T08:36:14.428Z,15.03
2018-03-15T08:42:15.033Z,12.6
2018-03-15T08:48:15.713Z,10.64
2018-03-15T08:52:16.283Z,11.81
2018-03-15T08:58:16.782Z,11.23
2018-03-15T09:02:17.421Z,12.98
2018-03-15T09:08:18.088Z,13.9
2018-03-15T09:14:18.761Z,10.43
2018-03-15T09:18:19.348Z,12.68
2018-03-15T09:24:20.046Z,13.3
2018-03-15T09:28:20.593Z,13.94
2018-03-15T09:34:21.237Z,12.93
2018-03-15T09:40:21.880Z,13.48
2018-03-15T09:44:22.544Z,13.35
2018-03-15T09:50:23.193Z,10.5
2018-03-15T09:54:23.822Z,14.33
2018-03-15T09:56:24.559Z,10.22
2018-03-15T10:00:25.358Z,12.66
2018-03-15T10:06:26.077Z,10.26
2018-03-15T10:10:26.586Z,11.34
2018-03-15T10:16:27.341Z,8.6
2018-03-15T10:20:27.881Z,7.65
2018-03-15T10:22:28.429Z,7.99
2018-03-15T10:26:29.036Z,7.37
2018-03-15T10:32:29.654Z,8.77
2018-03-15T10:36:30.314Z,8.1
2018-03-15T10:42:31.040Z,6.42
2018-03-15T10:46:32.116Z,8.98
2018-03-15T10:48:32.774Z,6.49
2018-03-15T10:52:33.303Z,6.05
2018-03-15T10:58:33.851Z,6.66
2018-03-15T11:02:34.521Z,7.2
2018-03-15T11:08:35.142Z,6.63
2018-03-15T11:14:35.790Z,5.87
2018-03-15T11:18:36.425Z,7.26
2018-03-15T11:24:37.139Z,9.02
2018-03-15T11:28:37.782Z,9.23
2018-03-15T11:34:38.429Z,7.79
2018-03-15T11:40:39.029Z,7.32
2018-03-15T11:44:39.736Z,11.12
2018-03-15T11:50:40.408Z,7.15
2018-03-15T11:54:41.077Z,10.22
2018-03-15T12:00:41.635Z,7.62
2018-03-15T12:06:42.308Z,6.91
2018-03-15T12:10:43.014Z,7.33
2018-03-15T12:16:43.745Z,5.72
2018-03-15T12:20:44.262Z,5.35
2018-03-15T12:22:44.887Z,6.78
2018-03-15T12:26:45.590Z,6.66
2018-03-15T12:32:46.258Z,8.02
2018-03-15T12:36:46.864Z,12.31
2018-03-15T12:42:47.530Z,17.14
2018-03-15T12:46:48.175Z,16.08
2018-03-15T12:48:48.698Z,18.04
2018-03-15T12:52:49.324Z,18.21
2018-03-15T12:58:50.122Z,18.13
2018-03-15T13:02:50.912Z,21.44
2018-03-15T13:08:51.479Z,18.63
2018-03-15T13:12:52.090Z,19.38
2018-03-15T13:14:52.625Z,16.26
2018-03-15T13:18:53.347Z,19.27
2018-03-15T13:24:54.100Z,16.66
2018-03-15T13:28:54.585Z,21.66
2018-03-15T13:34:55.334Z,14.26
2018-03-15T13:40:56.130Z,16.98
2018-03-15T13:44:56.804Z,15.27
2018-03-15T13:50:57.408Z,11.75
2018-03-15T13:54:57.939Z,16.95
2018-03-15T14:00:58.699Z,16.1
2018-03-15T14:06:59.285Z,17.14
2018-03-15T14:10:59.940Z,15.53
2018-03-15T14:17:00.851Z,15.44
2018-03-15T14:21:01.583Z,17.17
2018-03-15T14:27:02.040Z,17.68
2018-03-15T14:33:02.697Z,14.24
2018-03-15T14:37:03.423Z,25.83
2018-03-15T14:43:04.036Z,16.42
2018-03-15T14:47:04.554Z,18.5
2018-03-15T14:49:05.137Z,12.25
2018-03-15T14:53:05.763Z,14.17
2018-03-15T14:59:06.509Z,17.77
2018-03-15T15:03:07.073Z,17.81
2018-03-15T15:09:07.805Z,20.93
2018-03-15T15:13:08.348Z,24.1
2018-03-15T15:15:09.259Z,19.71
2018-03-15T15:19:09.878Z,26.25
2018-03-15T15:25:10.535Z,17.72
2018-03-15T15:29:11.155Z,21.94
2018-03-15T15:35:11.764Z,23.1
2018-03-15T15:39:12.375Z,25.56
2018-03-15T15:41:12.906Z,25.93
2018-03-15T15:45:13.933Z,24.73
2018-03-15T15:51:14.676Z,23.75
2018-03-15T15:55:15.320Z,25.45
2018-03-15T16:01:15.982Z,17.95
2018-03-15T16:07:16.642Z,17.4
2018-03-15T16:11:17.229Z,20.07
2018-03-15T16:17:18.047Z,19.29
2018-03-15T16:21:19.079Z,22.33
2018-03-15T16:27:19.819Z,20.58
2018-03-15T16:33:20.377Z,18.39
2018-03-15T16:37:21.014Z,27.56
2018-03-15T16:43:21.594Z,20.75
2018-03-15T16:47:22.152Z,25.28
2018-03-15T16:53:23.038Z,24.52
2018-03-15T16:59:23.691Z,16.53
2018-03-15T17:03:24.305Z,18.36
2018-03-15T17:09:24.863Z,10.67
2018-03-15T17:13:25.549Z,11.31
2018-03-15T17:15:26.707Z,10.87
2018-03-15T17:19:27.442Z,11.64
2018-03-15T17:25:28.096Z,5.8
2018-03-15T17:29:28.888Z,10.53
2018-03-15T17:35:29.429Z,7.55
2018-03-15T17:39:30.126Z,8.48
2018-03-15T17:41:30.747Z,9.47
2018-03-15T17:45:31.920Z,10.84
2018-03-15T17:51:32.588Z,8.78
2018-03-15T17:55:33.264Z,7.34
2018-03-15T18:01:33.900Z,7.47
2018-03-15T18:05:34.481Z,8.94
2018-03-15T18:07:35.236Z,9.51
2018-03-15T18:11:35.852Z,10.5
2018-03-15T18:17:36.661Z,7.95
2018-03-15T18:21:37.313Z,7.22
2018-03-15T18:27:38.019Z,8.65
2018-03-15T18:31:38.546Z,8.59
2018-03-15T18:33:39.101Z,9.84
2018-03-15T18:37:39.700Z,11.16
2018-03-15T18:43:40.401Z,8.43
2018-03-15T18:47:41.058Z,9.19
2018-03-15T18:53:41.583Z,6.47
2018-03-15T18:59:42.397Z,7.23
2018-03-15T19:03:43.049Z,8.51
2018-03-15T19:09:43.618Z,7.27
2018-03-15T19:13:44.239Z,8.07
2018-03-15T19:19:44.860Z,9.7
2018-03-15T19:25:45.479Z,8.75
2018-03-15T19:29:46.122Z,9.3
2018-03-15T19:35:46.832Z,8.17
2018-03-15T19:39:47.539Z,8.21
2018-03-15T19:45:48.010Z,10.64
2018-03-15T19:51:48.666Z,7.78
2018-03-15T19:55:49.231Z,7.5
2018-03-15T20:01:49.697Z,8.19
2018-03-15T20:05:50.189Z,8.4
2018-03-15T20:07:50.830Z,8.41
2018-03-15T20:11:51.406Z,8.26
2018-03-15T20:17:51.913Z,9.25
2018-03-15T20:21:52.688Z,5.79
2018-03-15T20:27:53.257Z,6.81
2018-03-15T20:31:53.791Z,9.4
2018-03-15T20:33:54.459Z,7.83
2018-03-15T20:37:55.044Z,8.42
2018-03-15T20:43:55.654Z,7.9
2018-03-15T20:47:56.205Z,5.86
2018-03-15T20:53:56.932Z,9.8
2018-03-15T20:57:57.607Z,8.26
2018-03-15T20:59:58.170Z,6.45
2018-03-15T21:03:58.763Z,7.81
2018-03-15T21:09:59.324Z,7.05
2018-03-15T21:13:59.818Z,7.18
2018-03-15T21:20:00.431Z,7.52
2018-03-15T21:26:00.943Z,7.5
2018-03-15T21:30:01.580Z,8.13
2018-03-15T21:36:02.097Z,4.74
2018-03-15T21:40:02.638Z,3.76
2018-03-15T21:46:03.228Z,4.44
2018-03-15T21:52:03.779Z,4.82
2018-03-15T21:56:04.432Z,3.81
2018-03-15T22:02:05.175Z,2.71
2018-03-15T22:06:05.964Z,3.23
2018-03-15T22:08:06.616Z,3.31
2018-03-15T22:12:07.246Z,3.57
2018-03-15T22:18:07.933Z,3.19
2018-03-15T22:22:08.542Z,3.45
2018-03-15T22:28:09.131Z,4.53
2018-03-15T22:32:09.678Z,4.23
2018-03-15T22:34:10.290Z,5.22
2018-03-15T22:38:11.000Z,14.27
2018-03-15T22:44:11.785Z,4.78
2018-03-15T22:48:12.373Z,3.02
2018-03-15T22:54:13.053Z,2.73
2018-03-15T22:58:13.742Z,2.97
2018-03-15T23:00:14.724Z,3
2018-03-15T23:04:15.639Z,4.13
2018-03-15T23:10:16.209Z,2.98
2018-03-15T23:14:16.858Z,3.77
2018-03-15T23:20:17.513Z,4.48
2018-03-15T23:24:18.222Z,3.57
2018-03-15T23:26:18.911Z,2.73
2018-03-15T23:30:19.927Z,3.41
2018-03-15T23:36:20.649Z,4.03
2018-03-15T23:40:21.202Z,3.25
2018-03-15T23:46:21.897Z,4.43
2018-03-15T23:52:22.659Z,5.03
2018-03-15T23:56:23.145Z,4.88
